Time;durP1;ratioP1;P1;durP2;ratioP2;P2;SDS_P1;SDS_P2;PMS_P1;PMS_P2;Temp;Humidity;BMP_temperature;BMP_pressure;BME280_temperature;BME280_humidity;BME280_pressure;Samples;Min_cycle;Max_cycle;Signal;HPM_P1;HPM_P2
2022/04/02 00:00:47;;;;;;;6.93;6.63;;;;;;;0.82;85.93;101698.97;5073238;28;20531;-46
2022/04/02 00:03:15;;;;;;;6.37;5.97;;;;;;;0.83;85.42;101705.91;5072772;28;20462;-46
2022/04/02 00:05:43;;;;;;;7.83;7.33;;;;;;;0.83;85.98;101703.28;5073281;28;20837;-44
2022/04/02 00:08:11;;;;;;;7.63;7.03;;;;;;;0.84;86.10;101693.59;5073084;28;20956;-46
2022/04/02 00:10:38;;;;;;;7.80;7.30;;;;;;;0.86;86.24;101705.69;5073062;28;20809;-44
2022/04/02 00:13:08;;;;;;;7.37;7.07;;;;;;;0.87;85.80;101690.75;5072591;28;20657;-44
2022/04/02 00:15:36;;;;;;;8.53;7.90;;;;;;;0.83;85.32;101691.94;5073193;28;20430;-45
2022/04/02 00:18:03;;;;;;;8.20;7.60;;;;;;;0.85;85.48;101697.91;5073097;28;20444;-45
2022/04/02 00:20:32;;;;;;;7.67;7.17;;;;;;;0.83;85.82;101699.81;5072709;28;20441;-45
2022/04/02 00:25:44;;;;;;;7.60;7.20;;;;;;;0.86;85.56;101689.09;5072912;28;20488;-44
2022/04/02 00:28:13;;;;;;;7.93;7.53;;;;;;;0.87;86.19;101683.72;5072929;28;20434;-47
2022/04/02 00:30:41;;;;;;;7.70;7.27;;;;;;;0.87;85.82;101682.88;5072604;28;20437;-46
2022/04/02 00:33:09;;;;;;;8.40;7.67;;;;;;;0.88;86.21;101690.66;5072030;28;20478;-44
2022/04/02 00:35:37;;;;;;;7.60;7.10;;;;;;;0.86;86.66;101692.56;5072875;28;20431;-46
2022/04/02 00:38:06;;;;;;;7.93;7.33;;;;;;;0.85;86.62;101693.50;5072579;28;20438;-44
2022/04/02 00:40:34;;;;;;;7.50;7.20;;;;;;;0.85;85.65;101698.75;5072409;28;20438;-47
2022/04/02 00:43:01;;;;;;;7.97;7.40;;;;;;;0.88;86.28;101692.44;5071976;28;20971;-45
2022/04/02 00:45:31;;;;;;;8.43;8.03;;;;;;;0.91;86.92;101698.31;5071031;28;20797;-44
2022/04/02 00:47:58;;;;;;;8.97;8.50;;;;;;;0.90;86.77;101698.41;5065927;28;20433;-44
2022/04/02 00:50:27;;;;;;;8.10;7.60;;;;;;;0.87;86.68;101696.84;5072385;28;20460;-44
2022/04/02 00:52:56;;;;;;;7.57;7.07;;;;;;;0.88;86.92;101706.41;5071710;28;20458;-44
2022/04/02 00:55:24;;;;;;;8.90;8.30;;;;;;;0.88;86.62;101702.94;5072263;28;20918;-44
2022/04/02 00:57:51;;;;;;;8.00;7.60;;;;;;;0.90;87.39;101715.00;5072123;28;20949;-44
2022/04/02 01:00:20;;;;;;;8.37;7.67;;;;;;;0.87;87.06;101709.13;5072266;28;20438;-43
2022/04/02 01:02:48;;;;;;;8.70;7.97;;;;;;;0.84;87.21;101711.97;5071737;28;20458;-47
2022/04/02 01:05:16;;;;;;;7.87;7.50;;;;;;;0.81;87.20;101709.56;5072288;28;20814;-44
2022/04/02 01:07:44;;;;;;;8.33;7.97;;;;;;;0.76;87.19;101709.06;5072229;28;20436;-45
2022/04/02 01:10:11;;;;;;;8.20;7.73;;;;;;;0.73;86.87;101701.41;5071900;28;20434;-46
2022/04/02 01:12:39;;;;;;;9.00;8.50;;;;;;;0.71;87.17;101705.94;5071235;28;20480;-44
2022/04/02 01:15:07;;;;;;;8.27;7.73;;;;;;;0.66;86.84;101705.44;5071911;28;20437;-44
2022/04/02 01:17:36;;;;;;;8.53;8.07;;;;;;;0.65;87.41;101706.38;5071977;28;20435;-44
2022/04/02 01:20:07;;;;;;;10.20;9.60;;;;;;;0.61;87.10;101708.38;5072035;28;20426;-45
2022/04/02 01:22:37;;;;;;;8.60;8.10;;;;;;;0.58;86.82;101703.34;5071378;28;20550;-44
2022/04/02 01:25:05;;;;;;;8.97;8.47;;;;;;;0.57;87.08;101713.97;5071720;28;20430;-44
2022/04/02 01:27:33;;;;;;;9.50;9.03;;;;;;;0.55;87.52;101708.81;5071838;28;20434;-43
2022/04/02 01:30:01;;;;;;;9.53;9.13;;;;;;;0.54;87.10;101701.88;5071925;28;20429;-44
2022/04/02 01:32:28;;;;;;;9.23;8.33;;;;;;;0.48;86.24;101718.91;5070905;28;20853;-44
2022/04/02 01:34:56;;;;;;;9.47;8.83;;;;;;;0.40;86.02;101716.00;5070978;28;20430;-43
2022/04/02 01:37:24;;;;;;;9.97;8.97;;;;;;;0.37;86.23;101712.75;5071665;28;20434;-47
2022/04/02 01:39:53;;;;;;;10.20;9.30;;;;;;;0.32;86.31;101720.94;5071642;28;20434;-44
2022/04/02 01:42:24;;;;;;;9.43;8.83;;;;;;;0.33;87.73;101724.41;5070983;28;20462;-44
2022/04/02 01:44:52;;;;;;;9.77;9.27;;;;;;;0.33;87.87;101717.34;5071399;28;20430;-46
2022/04/02 01:47:20;;;;;;;9.23;8.70;;;;;;;0.30;89.03;101728.06;5063329;28;20803;-44
2022/04/02 01:49:48;;;;;;;9.13;8.63;;;;;;;0.30;89.65;101725.44;5071695;28;20436;-44
2022/04/02 01:52:17;;;;;;;9.27;8.80;;;;;;;0.30;89.74;101720.19;5070572;28;20477;-44
2022/04/02 01:54:45;;;;;;;13.20;10.00;;;;;;;0.28;90.76;101719.47;5071731;28;20497;-44
2022/04/02 01:57:14;;;;;;;10.43;9.73;;;;;;;0.31;90.81;101718.41;5071692;28;20438;-45
2022/04/02 01:59:44;;;;;;;9.80;9.30;;;;;;;0.30;90.86;101722.00;5071571;28;20427;-44
2022/04/02 02:02:12;;;;;;;10.10;9.07;;;;;;;0.26;90.65;101715.28;5070766;28;20468;-43
2022/04/02 02:04:39;;;;;;;9.27;8.87;;;;;;;0.24;90.29;101712.75;5071369;28;21001;-43
2022/04/02 02:07:07;;;;;;;10.93;9.20;;;;;;;0.23;90.80;101718.97;5071595;28;20438;-44
2022/04/02 02:09:35;;;;;;;10.07;9.43;;;;;;;0.23;90.93;101713.72;5071537;28;20794;-45
2022/04/02 02:12:04;;;;;;;8.77;8.30;;;;;;;0.18;89.91;101715.78;5070505;28;20495;-44
2022/04/02 02:14:33;;;;;;;10.10;9.37;;;;;;;0.12;89.57;101724.09;5071409;28;20434;-44
2022/04/02 02:17:00;;;;;;;12.60;10.50;;;;;;;0.11;90.05;101724.22;5071235;28;20439;-43
2022/04/02 02:19:28;;;;;;;9.43;8.93;;;;;;;0.09;94.30;101723.47;5071494;28;20438;-43
2022/04/02 02:21:56;;;;;;;9.97;9.27;;;;;;;0.10;94.82;101726.00;5070599;28;20462;-46
2022/04/02 02:24:24;;;;;;;9.73;9.03;;;;;;;0.13;95.80;101728.41;5071599;28;20444;-44
2022/04/02 02:26:53;;;;;;;9.77;9.23;;;;;;;0.16;95.60;101732.59;5071328;28;20430;-44
2022/04/02 02:29:20;;;;;;;10.17;9.57;;;;;;;0.16;95.78;101722.94;5071348;28;20436;-45
2022/04/02 02:31:50;;;;;;;9.67;9.00;;;;;;;0.16;95.19;101716.84;5070310;28;20473;-46
2022/04/02 02:37:02;;;;;;;8.70;8.20;;;;;;;0.16;95.08;101722.94;5071215;28;20441;-43
2022/04/02 02:39:30;;;;;;;8.83;8.33;;;;;;;0.17;94.54;101718.53;5071208;28;20430;-43
2022/04/02 02:41:58;;;;;;;10.30;9.27;;;;;;;0.18;94.86;101715.78;5070219;28;20462;-43
2022/04/02 02:44:25;;;;;;;9.10;8.60;;;;;;;0.16;94.93;101717.69;5070477;28;20436;-46
2022/04/02 02:46:54;;;;;;;9.50;9.00;;;;;;;0.17;95.51;101714.13;5047221;28;20436;-48
2022/04/02 02:49:22;;;;;;;9.27;8.87;;;;;;;0.17;95.19;101721.16;5071083;28;20434;-43
2022/04/02 02:51:50;;;;;;;10.23;9.57;;;;;;;0.16;95.90;101722.09;5074003;28;20469;-45
2022/04/02 02:54:17;;;;;;;10.03;9.33;;;;;;;0.13;95.54;101720.53;5074634;28;20470;-44
2022/04/02 02:56:45;;;;;;;8.73;8.33;;;;;;;0.15;95.37;101720.44;5074502;28;20442;-43
2022/04/02 02:59:13;;;;;;;8.80;8.37;;;;;;;0.14;95.58;101727.47;5074681;28;20431;-43
2022/04/02 03:01:40;;;;;;;8.93;8.30;;;;;;;0.14;95.75;101730.09;5073697;28;20464;-44
2022/04/02 03:04:09;;;;;;;9.47;8.97;;;;;;;0.12;95.84;101734.56;5074532;28;20480;-43
2022/04/02 03:06:37;;;;;;;8.87;8.27;;;;;;;0.10;95.39;101733.84;5074489;28;20472;-46
2022/04/02 03:09:05;;;;;;;8.50;7.90;;;;;;;0.08;95.88;101734.91;5074295;28;20954;-45
2022/04/02 03:11:32;;;;;;;9.40;8.80;;;;;;;0.03;95.75;101732.59;5073312;28;20468;-44
2022/04/02 03:14:00;;;;;;;9.77;9.10;;;;;;;0.02;96.10;101737.94;5074834;28;20469;-44
2022/04/02 03:16:28;;;;;;;9.10;8.40;;;;;;;-0.01;95.59;101731.97;5074391;28;20458;-44
2022/04/02 03:18:55;;;;;;;8.40;8.00;;;;;;;-0.04;96.53;101734.81;5074286;28;20426;-47
2022/04/02 03:21:25;;;;;;;8.37;7.97;;;;;;;-0.04;96.52;101734.81;5073121;28;20437;-45
2022/04/02 03:23:52;;;;;;;8.70;8.20;;;;;;;-0.05;97.14;101733.13;5073965;28;20480;-44
2022/04/02 03:26:20;;;;;;;9.70;8.93;;;;;;;-0.07;96.61;101745.50;5074241;28;20440;-47
2022/04/02 03:28:49;;;;;;;13.57;8.60;;;;;;;-0.07;96.82;101744.66;5074233;28;20433;-45
2022/04/02 03:31:16;;;;;;;11.47;8.80;;;;;;;-0.12;97.23;101739.72;5073220;28;20434;-44
2022/04/02 03:33:44;;;;;;;8.87;8.03;;;;;;;-0.14;97.09;101746.00;5073799;28;20573;-49
2022/04/02 03:36:12;;;;;;;8.63;8.23;;;;;;;-0.17;96.95;101747.06;5073732;28;20437;-45
2022/04/02 03:38:42;;;;;;;9.43;8.80;;;;;;;-0.18;97.21;101755.03;5074015;28;20434;-48
2022/04/02 03:41:09;;;;;;;8.30;7.90;;;;;;;-0.19;97.89;101754.19;5073133;28;20423;-47
2022/04/02 03:43:37;;;;;;;9.80;9.40;;;;;;;-0.21;97.56;101755.25;5073635;28;20984;-46
2022/04/02 03:48:56;;;;;;;9.77;9.07;;;;;;;-0.28;97.82;101759.22;5073538;28;20968;-46
2022/04/02 03:51:23;;;;;;;11.03;10.50;;;;;;;-0.30;98.30;101761.91;5072625;28;20437;-45
2022/04/02 03:53:52;;;;;;;10.93;10.40;;;;;;;-0.29;99.10;101765.38;5073623;28;20470;-46
2022/04/02 03:56:20;;;;;;;11.50;10.97;;;;;;;-0.32;98.79;101761.19;5073358;28;20433;-44
2022/04/02 03:58:47;;;;;;;12.20;11.60;;;;;;;-0.33;99.40;101758.69;5072977;28;20437;-44
2022/04/02 04:01:15;;;;;;;12.00;11.27;;;;;;;-0.32;98.93;101765.59;5072449;28;20426;-45
2022/04/02 04:03:43;;;;;;;11.37;10.67;;;;;;;-0.33;99.15;101764.75;5073597;28;20447;-46
2022/04/02 04:06:11;;;;;;;13.30;12.60;;;;;;;-0.30;99.63;101761.09;5073297;28;20430;-45
2022/04/02 04:08:40;;;;;;;12.53;11.60;;;;;;;-0.29;99.07;101760.97;5073361;28;20430;-45
2022/04/02 04:11:10;;;;;;;12.83;11.93;;;;;;;-0.27;99.25;101764.34;5072493;28;20434;-43
2022/04/02 04:13:38;;;;;;;12.30;11.50;;;;;;;-0.26;99.52;101768.66;5072849;28;20993;-43
2022/04/02 04:16:06;;;;;;;11.83;11.03;;;;;;;-0.21;98.93;101773.59;5073072;28;20434;-44
2022/04/02 04:18:35;;;;;;;11.30;10.70;;;;;;;-0.19;99.23;101767.31;5073264;28;20426;-45
2022/04/02 04:21:02;;;;;;;11.63;10.93;;;;;;;-0.18;98.96;101773.41;5072659;28;20432;-44
2022/04/02 04:23:30;;;;;;;12.97;11.87;;;;;;;-0.18;98.90;101776.00;5072405;28;20458;-44
2022/04/02 04:25:59;;;;;;;11.60;10.90;;;;;;;-0.18;99.33;101781.25;5072943;28;20433;-44
2022/04/02 04:28:28;;;;;;;11.17;10.53;;;;;;;-0.12;99.48;101778.22;5072764;28;20434;-45
2022/04/02 04:30:56;;;;;;;11.70;11.03;;;;;;;-0.11;99.33;101787.75;5072734;28;20427;-45
2022/04/02 04:33:23;;;;;;;11.10;10.60;;;;;;;-0.11;98.96;101793.00;5071986;28;20477;-43
2022/04/02 04:35:51;;;;;;;12.20;11.50;;;;;;;-0.11;99.60;101787.75;5072781;28;20820;-44
2022/04/02 04:38:18;;;;;;;12.87;12.00;;;;;;;-0.11;99.17;101785.13;5072673;28;20463;-46
2022/04/02 04:40:46;;;;;;;11.30;10.30;;;;;;;-0.10;99.28;101787.66;5072353;28;20434;-46
2022/04/02 04:43:14;;;;;;;12.63;11.90;;;;;;;-0.09;99.79;101799.00;5071953;28;20841;-45
2022/04/02 04:45:43;;;;;;;13.20;12.40;;;;;;;-0.07;99.68;101797.94;5069394;28;20431;-46
2022/04/02 04:48:11;;;;;;;12.30;11.63;;;;;;;-0.03;99.60;101798.59;5067331;28;20933;-43
2022/04/02 04:50:38;;;;;;;11.20;10.70;;;;;;;-0.03;99.09;101798.59;5072340;28;20430;-48
2022/04/02 04:53:06;;;;;;;11.40;10.80;;;;;;;-0.04;99.30;101799.53;5071839;28;20469;-45
2022/04/02 04:55:34;;;;;;;11.00;10.30;;;;;;;-0.03;99.48;101812.50;5072104;28;20474;-47
2022/04/02 04:58:02;;;;;;;13.87;11.10;;;;;;;-0.01;98.89;101812.44;5072199;28;20434;-43
2022/04/02 05:00:29;;;;;;;11.60;11.00;;;;;;;-0.01;99.39;101817.66;5072078;28;20434;-45
2022/04/02 05:02:59;;;;;;;11.40;10.70;;;;;;;-0.03;99.26;101814.31;5058296;28;20474;-45
2022/04/02 05:05:29;;;;;;;11.23;10.53;;;;;;;0.02;99.53;101824.47;5052063;28;20419;-43
2022/04/02 05:08:01;;;;;;;12.30;11.07;;;;;;;-0.01;99.29;101828.16;5051876;28;20873;-44
2022/04/02 05:10:29;;;;;;;11.20;10.40;;;;;;;0.02;99.72;101825.34;5051733;28;21134;-44
2022/04/02 05:12:57;;;;;;;10.60;9.87;;;;;;;0.03;99.67;101816.50;5051100;28;21044;-46
2022/04/02 05:15:24;;;;;;;11.10;10.50;;;;;;;0.08;99.84;101824.06;5057050;28;20493;-46
2022/04/02 05:17:52;;;;;;;12.77;12.10;;;;;;;0.06;99.96;101826.78;5071326;28;20431;-44
2022/04/02 05:20:21;;;;;;;12.23;11.23;;;;;;;0.10;99.93;101830.06;5070827;28;20430;-44
2022/04/02 05:22:49;;;;;;;10.60;10.10;;;;;;;0.16;100.00;101833.09;5070360;28;20457;-46
2022/04/02 05:25:16;;;;;;;11.43;10.83;;;;;;;0.44;99.77;101838.19;5070555;28;20430;-45
2022/04/02 05:27:44;;;;;;;11.17;10.33;;;;;;;0.51;99.47;101836.78;5071670;28;20431;-51
2022/04/02 05:30:13;;;;;;;10.00;9.40;;;;;;;0.63;99.68;101834.28;5071585;28;20445;-44
2022/04/02 05:32:40;;;;;;;17.40;10.67;;;;;;;0.71;99.65;101839.84;5070632;28;20462;-44
2022/04/02 05:35:09;;;;;;;9.27;8.67;;;;;;;0.76;98.44;101846.44;5071491;28;20989;-44
2022/04/02 05:37:44;;;;;;;9.60;8.90;;;;;;;0.90;97.90;101837.59;5071646;28;20933;-44
2022/04/02 05:40:12;;;;;;;9.17;8.60;;;;;;;1.30;98.37;101841.69;5071695;28;20444;-44
2022/04/02 05:42:41;;;;;;;10.87;10.07;;;;;;;1.73;96.75;101844.69;5071159;28;20991;-46
2022/04/02 05:45:10;;;;;;;10.57;8.77;;;;;;;2.25;94.63;101838.97;5070973;28;20521;-45
2022/04/02 05:47:42;;;;;;;9.93;9.13;;;;;;;2.57;89.46;101845.25;5063055;28;20801;-45
2022/04/02 05:50:11;;;;;;;8.40;8.00;;;;;;;2.92;86.33;101847.81;5071710;28;20432;-47
2022/04/02 05:53:00;;;;;;;8.90;8.50;;;;;;;3.32;81.86;101851.56;5071046;28;20465;-46
2022/04/02 05:55:28;;;;;;;8.30;7.80;;;;;;;3.67;79.97;101848.75;5071572;28;20510;-45
2022/04/02 05:57:55;;;;;;;9.17;8.77;;;;;;;4.18;77.83;101854.13;5071405;28;20438;-47
2022/04/02 06:00:23;;;;;;;8.70;8.30;;;;;;;4.56;74.88;101858.84;5050909;28;20450;-47
2022/04/02 06:02:56;;;;;;;9.73;9.07;;;;;;;4.73;71.57;101860.03;5044674;28;20471;-45
2022/04/02 06:05:24;;;;;;;8.60;8.10;;;;;;;4.94;72.04;101860.81;5050509;28;20436;-48
2022/04/02 06:07:51;;;;;;;7.53;7.13;;;;;;;5.05;69.91;101860.72;5069285;28;20839;-45
2022/04/02 06:10:20;;;;;;;7.63;7.33;;;;;;;5.30;69.96;101865.53;5056442;28;20539;-46
2022/04/02 06:12:50;;;;;;;8.20;7.50;;;;;;;5.54;68.43;101863.38;5049152;28;20477;-48
2022/04/02 06:15:19;;;;;;;8.00;7.60;;;;;;;5.83;67.93;101870.50;5050158;28;20474;-45
2022/04/02 06:17:46;;;;;;;12.07;8.37;;;;;;;5.96;66.40;101869.28;5050903;28;20457;-46
2022/04/02 06:20:14;;;;;;;8.90;8.40;;;;;;;6.15;65.74;101870.25;5050402;28;20431;-44
2022/04/02 06:22:42;;;;;;;7.80;7.40;;;;;;;6.47;65.13;101876.91;5057728;28;20470;-47
2022/04/02 06:25:10;;;;;;;8.90;8.50;;;;;;;6.54;65.20;101885.13;5073937;28;20426;-46
2022/04/02 06:27:43;;;;;;;9.97;9.03;;;;;;;6.28;61.68;101884.03;5074721;28;20525;-47
2022/04/02 06:30:12;;;;;;;8.40;7.80;;;;;;;6.52;63.61;101889.72;5061685;28;20435;-46
2022/04/02 06:32:40;;;;;;;8.23;7.93;;;;;;;6.43;62.99;101893.22;5070130;28;20489;-46
2022/04/02 06:35:09;;;;;;;8.97;8.43;;;;;;;6.33;63.48;101897.72;5073973;28;20478;-48
2022/04/02 06:37:38;;;;;;;8.83;8.33;;;;;;;6.56;63.94;101893.78;5074151;28;20937;-48
2022/04/02 06:40:09;;;;;;;8.67;8.20;;;;;;;6.65;62.37;101893.75;5073803;28;20441;-49
2022/04/02 06:42:37;;;;;;;8.97;8.37;;;;;;;6.56;63.73;101897.25;5072027;28;20462;-48
2022/04/02 06:45:08;;;;;;;9.00;8.50;;;;;;;6.25;63.67;101898.41;5072054;28;20811;-45
2022/04/02 06:47:35;;;;;;;9.63;9.03;;;;;;;6.10;64.35;101902.44;5046572;28;20439;-47
2022/04/02 06:50:05;;;;;;;9.63;9.07;;;;;;;6.36;65.03;101902.72;5033453;28;20946;-46
2022/04/02 06:52:33;;;;;;;9.10;8.50;;;;;;;6.44;63.26;101906.34;5033813;28;20466;-46
2022/04/02 06:55:01;;;;;;;9.17;8.77;;;;;;;6.53;64.60;101907.31;5034317;28;20510;-45
2022/04/02 06:57:29;;;;;;;8.83;8.43;;;;;;;6.31;63.24;101921.69;5034819;28;20446;-45
2022/04/02 06:59:57;;;;;;;8.47;8.07;;;;;;;5.99;64.52;101911.38;5034622;28;20432;-45
2022/04/02 07:02:26;;;;;;;8.97;8.57;;;;;;;5.88;65.81;101908.03;5033680;28;20983;-48
2022/04/02 07:04:53;;;;;;;9.80;9.10;;;;;;;6.05;65.27;101920.56;5033938;28;20435;-45
2022/04/02 07:07:21;;;;;;;10.63;9.93;;;;;;;6.48;64.71;101917.50;5034433;28;20928;-49
2022/04/02 07:09:48;;;;;;;9.53;9.07;;;;;;;6.38;64.89;101925.47;5034244;28;20920;-45
2022/04/02 07:12:16;;;;;;;9.40;8.90;;;;;;;5.94;64.81;101921.53;5033382;28;20464;-44
2022/04/02 07:14:43;;;;;;;10.47;9.80;;;;;;;5.77;66.13;101921.34;5034288;28;20432;-49
2022/04/02 07:17:11;;;;;;;10.07;9.40;;;;;;;5.78;66.65;101926.50;5034197;28;20432;-45
2022/04/02 07:19:41;;;;;;;11.40;10.67;;;;;;;5.65;66.77;101930.34;5033906;28;20534;-48
2022/04/02 07:22:10;;;;;;;10.40;9.47;;;;;;;5.59;66.26;101926.44;5040595;28;20466;-45
2022/04/02 07:24:39;;;;;;;9.10;8.60;;;;;;;5.18;67.24;101934.53;5050959;28;20441;-46
2022/04/02 07:27:08;;;;;;;9.50;8.77;;;;;;;5.06;69.44;101936.44;5053564;28;20443;-45
2022/04/02 07:29:36;;;;;;;8.53;8.13;;;;;;;4.78;71.42;101943.22;5051062;28;20469;-47
2022/04/02 07:32:04;;;;;;;8.60;8.20;;;;;;;4.62;73.27;101942.00;5037991;28;20840;-46
2022/04/02 07:34:32;;;;;;;9.40;8.83;;;;;;;4.56;72.69;101945.16;5051757;28;20446;-44
2022/04/02 07:37:05;;;;;;;8.83;8.43;;;;;;;4.40;72.95;101942.97;5053395;28;20467;-45
2022/04/02 07:39:49;;;;;;;9.50;8.90;;;;;;;4.09;74.18;101939.38;5053571;28;20819;-47
2022/04/02 07:42:22;;;;;;;9.10;8.67;;;;;;;4.17;74.47;101944.88;5052825;28;20465;-47
2022/04/02 07:45:01;;;;;;;9.03;8.57;;;;;;;3.96;72.45;101946.63;5050643;28;20427;-46
2022/04/02 07:47:30;;;;;;;9.07;8.67;;;;;;;4.18;72.72;101953.63;5063977;28;20783;-46
2022/04/02 07:50:02;;;;;;;9.10;8.70;;;;;;;4.26;70.59;101952.03;5053097;28;20922;-46
2022/04/02 07:52:31;;;;;;;8.60;8.20;;;;;;;4.88;70.46;101943.28;5052403;28;20577;-47
2022/04/02 07:55:06;;;;;;;9.77;8.97;;;;;;;5.46;68.25;101949.69;5053148;28;20993;-46
2022/04/02 07:57:39;;;;;;;9.40;8.80;;;;;;;5.53;63.53;101948.16;5040814;28;20440;-45
2022/04/02 08:00:10;;;;;;;8.20;7.70;;;;;;;5.25;62.18;101947.09;5035530;28;20428;-47
2022/04/02 08:02:39;;;;;;;8.57;7.83;;;;;;;5.06;62.38;101944.34;5043906;28;21009;-44
2022/04/02 08:05:10;;;;;;;7.90;7.40;;;;;;;4.68;67.08;101944.13;5041913;28;20436;-45
2022/04/02 08:07:43;;;;;;;8.20;7.80;;;;;;;4.77;67.42;101946.00;5042134;28;20471;-46
2022/04/02 08:10:13;;;;;;;7.30;6.80;;;;;;;4.70;65.65;101952.75;5044186;28;20427;-47
2022/04/02 08:12:42;;;;;;;6.77;6.47;;;;;;;5.10;63.78;101937.00;5052095;28;20471;-45
2022/04/02 08:15:11;;;;;;;6.40;6.10;;;;;;;4.98;63.20;101949.47;5052745;28;20426;-46
2022/04/02 08:17:40;;;;;;;5.53;5.23;;;;;;;4.94;58.23;101959.47;5044237;28;20439;-49
2022/04/02 08:20:10;;;;;;;6.00;5.63;;;;;;;4.87;61.01;101968.88;5052734;28;20438;-48
2022/04/02 08:22:39;;;;;;;5.73;5.33;;;;;;;4.48;59.41;101980.97;5052184;28;20467;-44
2022/04/02 08:25:07;;;;;;;6.13;5.73;;;;;;;4.34;61.33;101976.00;5052532;28;20439;-45
2022/04/02 08:27:39;;;;;;;6.70;6.30;;;;;;;4.24;64.75;101979.53;5050884;28;20445;-49
2022/04/02 08:30:10;;;;;;;5.80;5.47;;;;;;;4.23;65.84;101972.56;5051744;28;20938;-45
2022/04/02 08:33:04;;;;;;;5.43;5.23;;;;;;;4.18;63.69;101985.31;5051864;28;20462;-44
2022/04/02 08:35:39;;;;;;;6.13;5.50;;;;;;;4.52;63.88;101973.63;5041977;28;20431;-45
2022/04/02 08:38:19;;;;;;;5.63;5.13;;;;;;;4.96;61.29;101969.91;5035791;28;20440;-46
2022/04/02 08:41:16;;;;;;;6.73;6.30;;;;;;;5.47;60.47;102004.25;5033439;28;20458;-44
2022/04/02 08:44:25;;;;;;;5.53;5.13;;;;;;;5.16;60.39;101982.28;5033041;28;20455;-49
2022/04/02 08:47:12;;;;;;;4.97;4.73;;;;;;;5.40;57.55;101984.59;5056901;28;20427;-46
2022/04/02 08:49:42;;;;;;;5.90;5.10;;;;;;;5.20;57.08;101988.09;5043737;28;20459;-45
2022/04/02 08:52:21;;;;;;;5.33;5.03;;;;;;;4.91;54.85;101972.94;5051357;28;20474;-45
2022/04/02 08:55:08;;;;;;;5.80;4.80;;;;;;;4.91;57.04;101980.03;5052054;28;21159;-46
2022/04/02 08:57:57;;;;;;;5.77;5.37;;;;;;;5.15;58.20;101982.38;5041350;28;20475;-47
2022/04/02 09:00:27;;;;;;;4.50;4.30;;;;;;;5.41;54.07;101995.03;5051559;28;20432;-48
2022/04/02 09:03:25;;;;;;;5.27;4.60;;;;;;;5.50;52.95;101994.25;5051413;28;20464;-46
2022/04/02 09:06:11;;;;;;;4.93;4.73;;;;;;;5.85;51.58;101982.38;5040969;28;20435;-45
2022/04/02 09:09:05;;;;;;;5.57;5.30;;;;;;;6.09;54.87;101980.25;5051854;28;20433;-44
2022/04/02 09:11:53;;;;;;;5.40;5.10;;;;;;;6.44;49.68;101979.69;5050238;28;20958;-47
2022/04/02 09:14:34;;;;;;;4.83;4.63;;;;;;;6.31;50.94;101985.25;5044447;28;20431;-46
2022/04/02 09:17:09;;;;;;;4.33;3.93;;;;;;;6.24;48.85;101978.88;5049203;28;20478;-45
2022/04/02 09:19:51;;;;;;;4.67;4.33;;;;;;;6.26;46.29;101992.81;5068586;22;20487;-46
2022/04/02 09:22:34;;;;;;;4.10;3.90;;;;;;;6.06;48.46;102007.00;5024923;28;20811;-45
2022/04/02 09:25:44;;;;;;;4.23;4.00;;;;;;;5.64;49.83;102002.81;5028619;28;20436;-46
2022/04/02 09:28:30;;;;;;;5.17;4.67;;;;;;;5.81;50.98;101994.22;5013690;28;20791;-45
2022/04/02 09:31:26;;;;;;;4.30;4.00;;;;;;;6.11;47.41;101994.19;4989255;28;20529;-50
2022/04/02 09:34:31;;;;;;;3.77;3.57;;;;;;;6.21;46.91;102008.28;4961968;28;20794;-46
2022/04/02 09:37:09;;;;;;;5.30;4.90;;;;;;;6.03;48.85;101999.31;4999466;28;21383;-46
2022/04/02 09:39:53;;;;;;;4.47;4.23;;;;;;;5.89;49.44;101997.03;5001098;28;20448;-44
2022/04/02 09:42:33;;;;;;;5.17;4.60;;;;;;;6.14;46.58;101999.19;4995107;28;20457;-47
2022/04/02 09:45:04;;;;;;;4.40;4.20;;;;;;;6.73;45.59;101993.75;4990856;28;20457;-47
2022/04/02 09:47:50;;;;;;;4.70;4.30;;;;;;;7.17;46.46;101987.81;4995203;28;20441;-46
2022/04/02 09:50:19;;;;;;;3.60;3.47;;;;;;;7.07;43.71;102005.59;4983559;28;20454;-49
2022/04/02 09:52:55;;;;;;;3.60;3.40;;;;;;;6.56;46.21;102005.91;4996753;28;20456;-44
2022/04/02 09:55:24;;;;;;;4.20;3.90;;;;;;;5.99;47.44;102009.34;4998005;28;20797;-48
2022/04/02 09:58:15;;;;;;;4.70;4.30;;;;;;;6.12;45.39;102003.81;4993559;28;20481;-46
2022/04/02 10:00:52;;;;;;;5.20;4.80;;;;;;;6.12;46.77;102004.63;4991107;28;20468;-44
2022/04/02 10:03:32;;;;;;;5.20;4.90;;;;;;;6.07;47.29;101996.25;5003808;28;20460;-47
2022/04/02 10:06:24;;;;;;;3.87;3.53;;;;;;;6.05;46.89;102008.81;4995150;28;20526;-46
2022/04/02 10:09:03;;;;;;;4.63;4.17;;;;;;;5.68;47.34;102005.03;5002976;28;20805;-49
2022/04/02 10:11:34;;;;;;;3.80;3.60;;;;;;;5.31;50.63;102025.91;5007743;28;20455;-47
2022/04/02 10:14:04;;;;;;;3.77;3.53;;;;;;;5.79;49.32;102012.06;4999079;28;20438;-44
2022/04/02 10:16:35;;;;;;;4.17;3.77;;;;;;;6.01;47.87;102017.97;5004486;28;20477;-48
2022/04/02 10:19:10;;;;;;;4.40;4.00;;;;;;;6.30;49.02;102009.25;4989103;28;20792;-46
2022/04/02 10:21:39;;;;;;;4.40;4.00;;;;;;;6.68;46.86;102003.97;4996671;28;20461;-50
2022/04/02 10:24:21;;;;;;;4.20;4.00;;;;;;;6.29;47.79;101997.81;5010857;28;20429;-48
2022/04/02 10:26:55;;;;;;;4.20;4.00;;;;;;;6.39;47.63;102029.63;5006246;28;20501;-47
2022/04/02 10:29:43;;;;;;;5.43;5.07;;;;;;;6.48;47.57;102007.59;5008131;28;20453;-46
2022/04/02 10:32:32;;;;;;;4.33;4.10;;;;;;;6.09;49.61;102009.38;4992844;28;20456;-46
2022/04/02 10:35:05;;;;;;;4.83;4.43;;;;;;;5.62;50.28;102008.22;5000360;28;20434;-44
2022/04/02 10:37:39;;;;;;;4.50;4.30;;;;;;;5.54;48.78;102019.47;4994899;28;20469;-45
2022/04/02 10:40:09;;;;;;;4.03;3.73;;;;;;;5.84;46.25;102015.13;4999966;28;20458;-45
2022/04/02 10:42:38;;;;;;;3.70;3.50;;;;;;;6.09;47.50;101999.59;5004077;28;20462;-48
2022/04/02 10:45:10;;;;;;;3.97;3.60;;;;;;;6.44;45.04;102019.44;4995665;28;20437;-46
2022/04/02 10:47:43;;;;;;;3.60;3.40;;;;;;;6.68;43.92;101999.50;4990885;28;20805;-45
2022/04/02 10:50:12;;;;;;;3.90;3.70;;;;;;;6.98;43.16;101990.53;4996760;28;20463;-43
2022/04/02 10:52:43;;;;;;;3.93;3.73;;;;;;;7.15;42.09;101995.09;4999428;28;20469;-46
2022/04/02 10:55:11;;;;;;;4.00;3.80;;;;;;;6.97;42.71;101995.97;4995469;28;20949;-44
2022/04/02 10:57:39;;;;;;;3.87;3.57;;;;;;;6.85;40.83;101995.28;4993014;28;20473;-45
2022/04/02 11:00:09;;;;;;;3.97;3.43;;;;;;;7.09;41.51;101994.81;4996914;28;20837;-43
2022/04/02 11:02:43;;;;;;;4.20;3.23;;;;;;;7.34;40.15;101988.03;4990991;28;20451;-46
2022/04/02 11:05:13;;;;;;;3.60;3.50;;;;;;;7.43;38.69;101993.31;5007639;28;20436;-47
2022/04/02 11:07:43;;;;;;;3.60;3.30;;;;;;;7.35;39.46;101981.78;5003728;28;20500;-47
2022/04/02 11:10:14;;;;;;;3.10;3.00;;;;;;;7.51;38.50;101989.94;4993507;28;20450;-45
2022/04/02 11:12:44;;;;;;;4.00;3.40;;;;;;;7.70;40.05;101982.72;5003596;28;20469;-43
2022/04/02 11:15:14;;;;;;;3.57;3.37;;;;;;;7.80;39.10;101987.97;5000468;28;20515;-43
2022/04/02 11:17:46;;;;;;;3.83;3.63;;;;;;;7.52;38.72;101989.78;5004336;28;20470;-46
2022/04/02 11:20:17;;;;;;;3.83;3.53;;;;;;;7.12;41.45;101986.56;4994336;28;20544;-46
2022/04/02 11:23:15;;;;;;;3.60;3.40;;;;;;;7.02;41.10;101993.69;5001595;28;20507;-45
2022/04/02 11:25:49;;;;;;;3.70;3.50;;;;;;;7.26;40.96;101987.94;4998008;28;20442;-50
2022/04/02 11:28:18;;;;;;;4.47;3.43;;;;;;;7.40;39.78;101987.47;4990146;28;20445;-45
2022/04/02 11:30:48;;;;;;;4.10;3.90;;;;;;;7.38;42.23;101979.63;5008755;28;20453;-47
2022/04/02 11:33:19;;;;;;;3.97;3.67;;;;;;;7.14;43.21;101979.28;5005100;28;20457;-46
2022/04/02 11:35:49;;;;;;;4.10;3.80;;;;;;;7.42;39.74;101977.53;4987190;28;20500;-49
2022/04/02 11:38:36;;;;;;;3.80;3.57;;;;;;;7.50;40.67;101974.97;4998613;28;20469;-50
2022/04/02 11:41:13;;;;;;;3.50;3.30;;;;;;;7.29;38.77;101991.13;5001846;28;20460;-43
2022/04/02 11:43:43;;;;;;;4.37;4.07;;;;;;;7.15;42.01;101989.78;4996787;28;21056;-47
2022/04/02 11:46:12;;;;;;;3.37;3.27;;;;;;;6.99;42.61;101986.88;4999015;28;20438;-43
2022/04/02 11:48:51;;;;;;;3.80;3.60;;;;;;;7.05;41.29;101981.00;4994381;28;20437;-44
2022/04/02 11:51:20;;;;;;;3.67;3.47;;;;;;;7.05;41.22;101990.75;4995622;28;20453;-45
2022/04/02 11:53:48;;;;;;;4.33;3.20;;;;;;;6.99;42.29;101984.22;5012712;28;20429;-46
2022/04/02 11:56:30;;;;;;;3.53;3.30;;;;;;;7.12;42.09;101986.56;4999937;28;20438;-47